sensor_id;sensor_type;location;lat;lon;timestamp;temperature;humidity
35258;DHT22;21385;50.878;8.050;2022-11-20T00:01:46;2.30;99.90
35258;DHT22;21385;50.878;8.050;2022-11-20T00:04:12;2.30;99.90
35258;DHT22;21385;50.878;8.050;2022-11-20T00:06:37;2.30;99.90
35258;DHT22;21385;50.878;8.050;2022-11-20T00:09:03;2.40;99.90
35258;DHT22;21385;50.878;8.050;2022-11-20T00:11:31;2.40;99.90
35258;DHT22;21385;50.878;8.050;2022-11-20T00:13:59;2.40;99.90
35258;DHT22;21385;50.878;8.050;2022-11-20T00:16:27;2.40;99.90
35258;DHT22;21385;50.878;8.050;2022-11-20T00:18:53;2.30;99.90
35258;DHT22;21385;50.878;8.050;2022-11-20T00:21:21;2.30;99.90
35258;DHT22;21385;50.878;8.050;2022-11-20T00:23:48;2.30;99.90
35258;DHT22;21385;50.878;8.050;2022-11-20T00:26:16;2.30;99.90
35258;DHT22;21385;50.878;8.050;2022-11-20T00:28:42;2.30;99.90
35258;DHT22;21385;50.878;8.050;2022-11-20T00:31:11;2.40;99.90
35258;DHT22;21385;50.878;8.050;2022-11-20T00:33:36;2.40;99.90
35258;DHT22;21385;50.878;8.050;2022-11-20T00:36:07;2.40;99.90
35258;DHT22;21385;50.878;8.050;2022-11-20T00:38:33;2.40;99.90
35258;DHT22;21385;50.878;8.050;2022-11-20T00:41:01;2.40;99.90
35258;DHT22;21385;50.878;8.050;2022-11-20T00:43:28;2.40;99.90
35258;DHT22;21385;50.878;8.050;2022-11-20T00:48:23;2.40;99.90
35258;DHT22;21385;50.878;8.050;2022-11-20T00:50:48;2.40;99.90
35258;DHT22;21385;50.878;8.050;2022-11-20T00:53:14;2.40;99.90
35258;DHT22;21385;50.878;8.050;2022-11-20T00:55:39;2.40;99.90
35258;DHT22;21385;50.878;8.050;2022-11-20T00:58:05;2.50;99.90
35258;DHT22;21385;50.878;8.050;2022-11-20T01:00:30;2.60;99.90
35258;DHT22;21385;50.878;8.050;2022-11-20T01:02:56;2.60;99.90
35258;DHT22;21385;50.878;8.050;2022-11-20T01:05:22;2.60;99.90
35258;DHT22;21385;50.878;8.050;2022-11-20T01:07:47;2.60;99.90
35258;DHT22;21385;50.878;8.050;2022-11-20T01:10:13;2.60;99.90
35258;DHT22;21385;50.878;8.050;2022-11-20T01:12:38;2.60;99.90
35258;DHT22;21385;50.878;8.050;2022-11-20T01:15:04;2.60;99.90
35258;DHT22;21385;50.878;8.050;2022-11-20T01:17:31;2.60;99.90
35258;DHT22;21385;50.878;8.050;2022-11-20T01:19:57;2.60;99.90
35258;DHT22;21385;50.878;8.050;2022-11-20T01:22:22;2.60;99.90
35258;DHT22;21385;50.878;8.050;2022-11-20T01:24:48;2.60;99.90
35258;DHT22;21385;50.878;8.050;2022-11-20T01:27:13;2.60;99.90
35258;DHT22;21385;50.878;8.050;2022-11-20T01:29:39;2.70;99.90
35258;DHT22;21385;50.878;8.050;2022-11-20T01:32:05;2.70;99.90
35258;DHT22;21385;50.878;8.050;2022-11-20T01:34:30;2.70;99.90
35258;DHT22;21385;50.878;8.050;2022-11-20T01:36:56;2.70;99.90
35258;DHT22;21385;50.878;8.050;2022-11-20T01:39:23;2.80;99.90
35258;DHT22;21385;50.878;8.050;2022-11-20T01:41:51;2.70;99.90
35258;DHT22;21385;50.878;8.050;2022-11-20T01:44:56;2.60;99.90
35258;DHT22;21385;50.878;8.050;2022-11-20T01:47:33;2.60;99.90
35258;DHT22;21385;50.878;8.050;2022-11-20T01:50:23;2.60;99.90
35258;DHT22;21385;50.878;8.050;2022-11-20T01:52:59;2.70;99.90
35258;DHT22;21385;50.878;8.050;2022-11-20T01:55:32;2.70;99.90
35258;DHT22;21385;50.878;8.050;2022-11-20T01:57:59;2.70;99.90
35258;DHT22;21385;50.878;8.050;2022-11-20T02:00:25;2.70;99.90
35258;DHT22;21385;50.878;8.050;2022-11-20T02:02:54;2.80;99.90
35258;DHT22;21385;50.878;8.050;2022-11-20T02:05:53;2.70;99.90
35258;DHT22;21385;50.878;8.050;2022-11-20T02:08:21;2.80;99.90
35258;DHT22;21385;50.878;8.050;2022-11-20T02:10:47;2.80;99.90
35258;DHT22;21385;50.878;8.050;2022-11-20T02:13:12;2.80;99.90
35258;DHT22;21385;50.878;8.050;2022-11-20T02:15:57;2.80;99.90
35258;DHT22;21385;50.878;8.050;2022-11-20T02:18:23;2.80;99.90
35258;DHT22;21385;50.878;8.050;2022-11-20T02:20:53;2.80;99.90
35258;DHT22;21385;50.878;8.050;2022-11-20T02:26:18;2.80;99.90
35258;DHT22;21385;50.878;8.050;2022-11-20T02:28:45;2.80;99.90
35258;DHT22;21385;50.878;8.050;2022-11-20T02:31:11;2.80;99.90
35258;DHT22;21385;50.878;8.050;2022-11-20T02:33:36;2.80;99.90
35258;DHT22;21385;50.878;8.050;2022-11-20T02:36:02;2.80;99.90
35258;DHT22;21385;50.878;8.050;2022-11-20T02:38:28;2.80;99.90
35258;DHT22;21385;50.878;8.050;2022-11-20T02:40:53;2.80;99.90
35258;DHT22;21385;50.878;8.050;2022-11-20T02:43:19;2.90;99.90
35258;DHT22;21385;50.878;8.050;2022-11-20T02:45:44;2.90;99.90
35258;DHT22;21385;50.878;8.050;2022-11-20T02:48:10;2.90;99.90
35258;DHT22;21385;50.878;8.050;2022-11-20T02:50:39;2.80;99.90
35258;DHT22;21385;50.878;8.050;2022-11-20T02:53:05;2.80;99.90
35258;DHT22;21385;50.878;8.050;2022-11-20T02:55:31;2.80;99.90
35258;DHT22;21385;50.878;8.050;2022-11-20T02:57:57;2.80;99.90
35258;DHT22;21385;50.878;8.050;2022-11-20T03:00:22;2.80;99.90
35258;DHT22;21385;50.878;8.050;2022-11-20T03:02:48;2.80;99.90
35258;DHT22;21385;50.878;8.050;2022-11-20T03:05:13;2.70;99.90
35258;DHT22;21385;50.878;8.050;2022-11-20T03:07:39;2.70;99.90
35258;DHT22;21385;50.878;8.050;2022-11-20T03:10:05;2.80;99.90
35258;DHT22;21385;50.878;8.050;2022-11-20T03:12:31;2.70;99.90
35258;DHT22;21385;50.878;8.050;2022-11-20T03:14:56;2.80;99.90
35258;DHT22;21385;50.878;8.050;2022-11-20T03:17:22;2.80;99.90
35258;DHT22;21385;50.878;8.050;2022-11-20T03:19:47;2.80;99.90
35258;DHT22;21385;50.878;8.050;2022-11-20T03:22:13;2.80;99.90
35258;DHT22;21385;50.878;8.050;2022-11-20T03:24:38;2.80;99.90
35258;DHT22;21385;50.878;8.050;2022-11-20T03:27:04;2.80;99.90
35258;DHT22;21385;50.878;8.050;2022-11-20T03:29:29;2.80;99.90
35258;DHT22;21385;50.878;8.050;2022-11-20T03:31:55;2.80;99.90
35258;DHT22;21385;50.878;8.050;2022-11-20T03:34:20;2.90;99.90
35258;DHT22;21385;50.878;8.050;2022-11-20T03:36:46;2.90;99.90
35258;DHT22;21385;50.878;8.050;2022-11-20T03:39:11;2.90;99.90
35258;DHT22;21385;50.878;8.050;2022-11-20T03:41:39;2.80;99.90
35258;DHT22;21385;50.878;8.050;2022-11-20T03:44:06;2.80;99.90
35258;DHT22;21385;50.878;8.050;2022-11-20T03:46:32;2.80;99.90
35258;DHT22;21385;50.878;8.050;2022-11-20T03:48:58;2.80;99.90
35258;DHT22;21385;50.878;8.050;2022-11-20T03:51:26;2.90;99.90
35258;DHT22;21385;50.878;8.050;2022-11-20T03:53:54;2.80;99.90
35258;DHT22;21385;50.878;8.050;2022-11-20T03:56:23;2.80;99.90
35258;DHT22;21385;50.878;8.050;2022-11-20T03:58:49;2.80;99.90
35258;DHT22;21385;50.878;8.050;2022-11-20T04:01:19;2.80;99.90
35258;DHT22;21385;50.878;8.050;2022-11-20T04:03:45;2.80;99.90
35258;DHT22;21385;50.878;8.050;2022-11-20T04:06:17;2.80;99.90
35258;DHT22;21385;50.878;8.050;2022-11-20T04:08:43;2.70;99.90
35258;DHT22;21385;50.878;8.050;2022-11-20T04:13:37;2.70;99.90
35258;DHT22;21385;50.878;8.050;2022-11-20T04:16:05;2.70;99.90
35258;DHT22;21385;50.878;8.050;2022-11-20T04:18:30;2.70;99.90
35258;DHT22;21385;50.878;8.050;2022-11-20T04:20:57;2.70;99.90
35258;DHT22;21385;50.878;8.050;2022-11-20T04:23:23;2.70;99.90
35258;DHT22;21385;50.878;8.050;2022-11-20T04:25:48;2.70;99.90
35258;DHT22;21385;50.878;8.050;2022-11-20T04:28:14;2.70;99.90
35258;DHT22;21385;50.878;8.050;2022-11-20T04:30:39;2.70;99.90
35258;DHT22;21385;50.878;8.050;2022-11-20T04:33:05;2.70;99.90
35258;DHT22;21385;50.878;8.050;2022-11-20T04:35:34;2.70;99.90
35258;DHT22;21385;50.878;8.050;2022-11-20T04:38:00;2.70;99.90
35258;DHT22;21385;50.878;8.050;2022-11-20T04:40:25;2.80;99.90
35258;DHT22;21385;50.878;8.050;2022-11-20T04:42:51;2.70;99.90
35258;DHT22;21385;50.878;8.050;2022-11-20T04:45:16;2.70;99.90
35258;DHT22;21385;50.878;8.050;2022-11-20T04:47:42;2.80;99.90
35258;DHT22;21385;50.878;8.050;2022-11-20T04:50:08;2.80;99.90
35258;DHT22;21385;50.878;8.050;2022-11-20T04:52:33;2.80;99.90
35258;DHT22;21385;50.878;8.050;2022-11-20T04:54:59;2.80;99.90
35258;DHT22;21385;50.878;8.050;2022-11-20T04:57:24;2.80;99.90
35258;DHT22;21385;50.878;8.050;2022-11-20T04:59:50;2.80;99.90
35258;DHT22;21385;50.878;8.050;2022-11-20T05:02:16;2.90;99.90
35258;DHT22;21385;50.878;8.050;2022-11-20T05:04:41;2.90;99.90
35258;DHT22;21385;50.878;8.050;2022-11-20T05:07:07;2.90;99.90
35258;DHT22;21385;50.878;8.050;2022-11-20T05:09:32;2.90;99.90
35258;DHT22;21385;50.878;8.050;2022-11-20T05:11:58;2.90;99.90
35258;DHT22;21385;50.878;8.050;2022-11-20T05:14:23;3.00;99.90
35258;DHT22;21385;50.878;8.050;2022-11-20T05:16:49;3.00;99.90
35258;DHT22;21385;50.878;8.050;2022-11-20T05:19:14;3.00;99.90
35258;DHT22;21385;50.878;8.050;2022-11-20T05:21:40;3.00;99.90
35258;DHT22;21385;50.878;8.050;2022-11-20T05:24:06;3.00;99.90
35258;DHT22;21385;50.878;8.050;2022-11-20T05:26:32;3.10;99.90
35258;DHT22;21385;50.878;8.050;2022-11-20T05:28:58;3.00;99.90
35258;DHT22;21385;50.878;8.050;2022-11-20T05:31:24;3.10;99.90
35258;DHT22;21385;50.878;8.050;2022-11-20T05:33:50;3.10;99.90
35258;DHT22;21385;50.878;8.050;2022-11-20T05:36:16;3.10;99.90
35258;DHT22;21385;50.878;8.050;2022-11-20T05:38:43;3.00;99.90
35258;DHT22;21385;50.878;8.050;2022-11-20T05:43:37;3.10;99.90
35258;DHT22;21385;50.878;8.050;2022-11-20T05:46:03;3.00;99.90
35258;DHT22;21385;50.878;8.050;2022-11-20T05:48:30;3.00;99.90
35258;DHT22;21385;50.878;8.050;2022-11-20T05:50:58;3.10;99.90
35258;DHT22;21385;50.878;8.050;2022-11-20T05:53:24;3.10;99.90
35258;DHT22;21385;50.878;8.050;2022-11-20T05:56:07;3.10;99.90
35258;DHT22;21385;50.878;8.050;2022-11-20T05:58:33;3.10;99.90
35258;DHT22;21385;50.878;8.050;2022-11-20T06:01:17;3.10;99.90
35258;DHT22;21385;50.878;8.050;2022-11-20T06:03:44;3.20;99.90
35258;DHT22;21385;50.878;8.050;2022-11-20T06:06:13;3.20;99.90
35258;DHT22;21385;50.878;8.050;2022-11-20T06:08:39;3.10;99.90
35258;DHT22;21385;50.878;8.050;2022-11-20T06:11:07;3.20;99.90
35258;DHT22;21385;50.878;8.050;2022-11-20T06:13:33;3.10;99.90
35258;DHT22;21385;50.878;8.050;2022-11-20T06:15:59;3.10;99.90
35258;DHT22;21385;50.878;8.050;2022-11-20T06:18:26;3.10;99.90
35258;DHT22;21385;50.878;8.050;2022-11-20T06:21:06;3.20;99.90
35258;DHT22;21385;50.878;8.050;2022-11-20T06:23:33;3.20;99.90
35258;DHT22;21385;50.878;8.050;2022-11-20T06:26:07;3.20;99.90
35258;DHT22;21385;50.878;8.050;2022-11-20T06:28:34;3.20;99.90
35258;DHT22;21385;50.878;8.050;2022-11-20T06:30:59;3.20;99.90
35258;DHT22;21385;50.878;8.050;2022-11-20T06:33:25;3.20;99.90
35258;DHT22;21385;50.878;8.050;2022-11-20T06:35:51;3.20;99.90
35258;DHT22;21385;50.878;8.050;2022-11-20T06:38:17;3.10;99.90
35258;DHT22;21385;50.878;8.050;2022-11-20T06:40:42;3.10;99.90
35258;DHT22;21385;50.878;8.050;2022-11-20T06:43:09;3.00;99.90
35258;DHT22;21385;50.878;8.050;2022-11-20T06:45:35;3.00;99.90
35258;DHT22;21385;50.878;8.050;2022-11-20T06:48:01;3.00;99.90
35258;DHT22;21385;50.878;8.050;2022-11-20T06:50:26;3.00;99.90
35258;DHT22;21385;50.878;8.050;2022-11-20T07:07:29;2.10;99.90
35258;DHT22;21385;50.878;8.050;2022-11-20T07:09:54;2.80;99.90
35258;DHT22;21385;50.878;8.050;2022-11-20T07:12:20;2.60;99.90
35258;DHT22;21385;50.878;8.050;2022-11-20T07:14:45;2.60;99.90
35258;DHT22;21385;50.878;8.050;2022-11-20T07:17:11;2.60;99.90
35258;DHT22;21385;50.878;8.050;2022-11-20T07:19:37;2.60;99.90
35258;DHT22;21385;50.878;8.050;2022-11-20T07:22:03;2.60;99.90
35258;DHT22;21385;50.878;8.050;2022-11-20T07:24:28;2.50;99.90
35258;DHT22;21385;50.878;8.050;2022-11-20T07:26:56;2.50;99.90
35258;DHT22;21385;50.878;8.050;2022-11-20T07:29:22;2.50;99.90
35258;DHT22;21385;50.878;8.050;2022-11-20T07:31:47;2.50;99.90
35258;DHT22;21385;50.878;8.050;2022-11-20T07:34:13;2.50;99.90
35258;DHT22;21385;50.878;8.050;2022-11-20T07:36:39;2.60;99.90
35258;DHT22;21385;50.878;8.050;2022-11-20T07:39:04;2.60;99.90
35258;DHT22;21385;50.878;8.050;2022-11-20T07:41:30;2.60;99.90
35258;DHT22;21385;50.878;8.050;2022-11-20T07:43:56;2.60;99.90
35258;DHT22;21385;50.878;8.050;2022-11-20T07:46:21;2.70;99.90
35258;DHT22;21385;50.878;8.050;2022-11-20T07:48:47;2.70;99.90
35258;DHT22;21385;50.878;8.050;2022-11-20T07:51:13;2.70;99.90
35258;DHT22;21385;50.878;8.050;2022-11-20T07:53:38;2.70;99.90
35258;DHT22;21385;50.878;8.050;2022-11-20T07:56:04;2.80;99.90
35258;DHT22;21385;50.878;8.050;2022-11-20T07:58:30;2.80;99.90
35258;DHT22;21385;50.878;8.050;2022-11-20T08:01:02;2.80;99.90
35258;DHT22;21385;50.878;8.050;2022-11-20T08:03:28;2.90;99.90
35258;DHT22;21385;50.878;8.050;2022-11-20T08:05:53;3.00;99.90
35258;DHT22;21385;50.878;8.050;2022-11-20T08:08:19;3.00;99.90
35258;DHT22;21385;50.878;8.050;2022-11-20T08:10:45;3.00;99.90
35258;DHT22;21385;50.878;8.050;2022-11-20T08:13:11;2.90;99.90
35258;DHT22;21385;50.878;8.050;2022-11-20T08:15:55;2.90;99.90
35258;DHT22;21385;50.878;8.050;2022-11-20T08:18:20;3.00;99.90
35258;DHT22;21385;50.878;8.050;2022-11-20T08:20:46;3.00;99.90
35258;DHT22;21385;50.878;8.050;2022-11-20T08:23:11;3.00;99.90
35258;DHT22;21385;50.878;8.050;2022-11-20T08:25:40;3.10;99.90
35258;DHT22;21385;50.878;8.050;2022-11-20T08:28:08;3.10;99.90
35258;DHT22;21385;50.878;8.050;2022-11-20T08:30:35;3.10;99.90
35258;DHT22;21385;50.878;8.050;2022-11-20T08:33:08;3.20;99.90
35258;DHT22;21385;50.878;8.050;2022-11-20T08:35:38;3.10;99.90
35258;DHT22;21385;50.878;8.050;2022-11-20T08:38:04;3.10;99.90
35258;DHT22;21385;50.878;8.050;2022-11-20T08:40:31;3.10;99.90
35258;DHT22;21385;50.878;8.050;2022-11-20T08:42:56;3.10;99.90
35258;DHT22;21385;50.878;8.050;2022-11-20T08:45:22;3.00;99.90
35258;DHT22;21385;50.878;8.050;2022-11-20T08:47:47;3.00;99.90
35258;DHT22;21385;50.878;8.050;2022-11-20T08:50:14;3.00;99.90
35258;DHT22;21385;50.878;8.050;2022-11-20T08:52:40;3.00;99.90
35258;DHT22;21385;50.878;8.050;2022-11-20T08:55:07;3.00;99.90
35258;DHT22;21385;50.878;8.050;2022-11-20T08:57:34;3.10;99.90
35258;DHT22;21385;50.878;8.050;2022-11-20T08:59:59;3.10;99.90
35258;DHT22;21385;50.878;8.050;2022-11-20T09:02:25;3.20;99.90
35258;DHT22;21385;50.878;8.050;2022-11-20T09:04:51;3.20;99.90
35258;DHT22;21385;50.878;8.050;2022-11-20T09:07:17;3.10;99.90
35258;DHT22;21385;50.878;8.050;2022-11-20T09:09:42;3.10;99.90
35258;DHT22;21385;50.878;8.050;2022-11-20T09:12:08;3.10;99.90
35258;DHT22;21385;50.878;8.050;2022-11-20T09:14:33;3.20;99.90
35258;DHT22;21385;50.878;8.050;2022-11-20T09:16:59;3.30;99.90
35258;DHT22;21385;50.878;8.050;2022-11-20T09:19:25;3.30;99.90
35258;DHT22;21385;50.878;8.050;2022-11-20T09:21:51;3.40;99.90
35258;DHT22;21385;50.878;8.050;2022-11-20T09:24:17;3.40;99.90
35258;DHT22;21385;50.878;8.050;2022-11-20T09:26:42;3.50;99.90
35258;DHT22;21385;50.878;8.050;2022-11-20T09:29:08;3.60;99.90
35258;DHT22;21385;50.878;8.050;2022-11-20T09:31:33;3.50;99.90
35258;DHT22;21385;50.878;8.050;2022-11-20T09:33:59;3.50;99.90
35258;DHT22;21385;50.878;8.050;2022-11-20T09:36:25;3.50;99.90
35258;DHT22;21385;50.878;8.050;2022-11-20T09:38:50;3.50;99.90
35258;DHT22;21385;50.878;8.050;2022-11-20T09:46:35;3.60;99.90
35258;DHT22;21385;50.878;8.050;2022-11-20T09:52:09;3.40;99.90
35258;DHT22;21385;50.878;8.050;2022-11-20T09:54:39;3.40;99.90
35258;DHT22;21385;50.878;8.050;2022-11-20T09:57:11;3.40;99.90
35258;DHT22;21385;50.878;8.050;2022-11-20T09:59:43;3.40;99.90
35258;DHT22;21385;50.878;8.050;2022-11-20T10:06:03;3.40;99.90
35258;DHT22;21385;50.878;8.050;2022-11-20T10:08:17;3.50;99.90
35258;DHT22;21385;50.878;8.050;2022-11-20T10:10:47;3.60;99.90
35258;DHT22;21385;50.878;8.050;2022-11-20T10:16:30;3.80;99.90
35258;DHT22;21385;50.878;8.050;2022-11-20T10:25:12;4.00;99.90
35258;DHT22;21385;50.878;8.050;2022-11-20T10:30:12;4.10;99.90
35258;DHT22;21385;50.878;8.050;2022-11-20T10:32:43;4.10;99.90
35258;DHT22;21385;50.878;8.050;2022-11-20T10:35:28;4.20;99.90
35258;DHT22;21385;50.878;8.050;2022-11-20T10:38:00;4.30;99.90
35258;DHT22;21385;50.878;8.050;2022-11-20T10:40:38;4.40;99.90
35258;DHT22;21385;50.878;8.050;2022-11-20T10:43:21;4.50;99.90
35258;DHT22;21385;50.878;8.050;2022-11-20T10:45:57;4.40;99.90
35258;DHT22;21385;50.878;8.050;2022-11-20T10:48:28;4.40;99.90
35258;DHT22;21385;50.878;8.050;2022-11-20T10:51:30;4.50;99.90
35258;DHT22;21385;50.878;8.050;2022-11-20T10:56:52;4.50;99.90
35258;DHT22;21385;50.878;8.050;2022-11-20T11:02:22;4.50;99.90
35258;DHT22;21385;50.878;8.050;2022-11-20T11:04:50;4.60;99.90
35258;DHT22;21385;50.878;8.050;2022-11-20T11:09:53;4.80;99.90
35258;DHT22;21385;50.878;8.050;2022-11-20T11:12:21;4.70;99.90
35258;DHT22;21385;50.878;8.050;2022-11-20T11:17:21;4.70;99.90
35258;DHT22;21385;50.878;8.050;2022-11-20T11:20:18;4.80;99.90
35258;DHT22;21385;50.878;8.050;2022-11-20T11:23:00;4.90;99.90
35258;DHT22;21385;50.878;8.050;2022-11-20T11:25:31;4.80;99.90
35258;DHT22;21385;50.878;8.050;2022-11-20T11:30:44;4.80;99.90
35258;DHT22;21385;50.878;8.050;2022-11-20T11:33:18;4.60;99.90
35258;DHT22;21385;50.878;8.050;2022-11-20T11:35:49;4.60;99.90
35258;DHT22;21385;50.878;8.050;2022-11-20T11:38:19;4.70;99.90
35258;DHT22;21385;50.878;8.050;2022-11-20T11:40:46;4.60;99.90
35258;DHT22;21385;50.878;8.050;2022-11-20T11:43:48;4.70;99.90
35258;DHT22;21385;50.878;8.050;2022-11-20T11:46:35;4.70;99.90
35258;DHT22;21385;50.878;8.050;2022-11-20T11:54:28;5.00;99.90
35258;DHT22;21385;50.878;8.050;2022-11-20T11:56:58;5.00;99.90
35258;DHT22;21385;50.878;8.050;2022-11-20T12:03:14;5.10;99.90
35258;DHT22;21385;50.878;8.050;2022-11-20T12:05:50;5.20;99.90
35258;DHT22;21385;50.878;8.050;2022-11-20T12:10:59;5.30;99.90
35258;DHT22;21385;50.878;8.050;2022-11-20T12:15:56;5.40;99.90
35258;DHT22;21385;50.878;8.050;2022-11-20T12:18:22;5.30;99.90
35258;DHT22;21385;50.878;8.050;2022-11-20T12:21:28;5.20;99.90
35258;DHT22;21385;50.878;8.050;2022-11-20T12:44:03;5.20;99.90
35258;DHT22;21385;50.878;8.050;2022-11-20T12:47:09;5.10;99.90
35258;DHT22;21385;50.878;8.050;2022-11-20T12:49:56;5.00;99.90
35258;DHT22;21385;50.878;8.050;2022-11-20T12:55:28;5.00;99.90
35258;DHT22;21385;50.878;8.050;2022-11-20T13:07:06;5.10;99.90
35258;DHT22;21385;50.878;8.050;2022-11-20T13:09:36;5.10;99.90
35258;DHT22;21385;50.878;8.050;2022-11-20T13:14:46;5.20;99.90
35258;DHT22;21385;50.878;8.050;2022-11-20T13:17:30;5.20;99.90
35258;DHT22;21385;50.878;8.050;2022-11-20T13:19:57;5.10;99.90
35258;DHT22;21385;50.878;8.050;2022-11-20T13:22:28;5.20;99.90
35258;DHT22;21385;50.878;8.050;2022-11-20T13:24:54;5.20;99.90
35258;DHT22;21385;50.878;8.050;2022-11-20T13:27:22;5.30;99.90
35258;DHT22;21385;50.878;8.050;2022-11-20T13:30:15;5.30;99.90
35258;DHT22;21385;50.878;8.050;2022-11-20T13:33:03;5.40;99.90
35258;DHT22;21385;50.878;8.050;2022-11-20T13:35:41;5.40;99.90
35258;DHT22;21385;50.878;8.050;2022-11-20T13:38:08;5.50;99.90
35258;DHT22;21385;50.878;8.050;2022-11-20T13:40:37;5.50;99.90
35258;DHT22;21385;50.878;8.050;2022-11-20T13:43:35;5.90;99.90
35258;DHT22;21385;50.878;8.050;2022-11-20T13:46:07;6.10;99.90
35258;DHT22;21385;50.878;8.050;2022-11-20T13:49:05;6.60;99.90
35258;DHT22;21385;50.878;8.050;2022-11-20T13:51:51;6.60;99.90
35258;DHT22;21385;50.878;8.050;2022-11-20T13:54:43;6.40;99.90
35258;DHT22;21385;50.878;8.050;2022-11-20T14:02:38;6.00;99.90
35258;DHT22;21385;50.878;8.050;2022-11-20T14:05:05;5.90;99.90
35258;DHT22;21385;50.878;8.050;2022-11-20T14:07:40;5.90;99.90
35258;DHT22;21385;50.878;8.050;2022-11-20T14:10:23;5.80;99.90
35258;DHT22;21385;50.878;8.050;2022-11-20T14:12:49;5.80;99.90
35258;DHT22;21385;50.878;8.050;2022-11-20T14:15:34;5.80;99.90
35258;DHT22;21385;50.878;8.050;2022-11-20T14:18:20;5.70;99.90
35258;DHT22;21385;50.878;8.050;2022-11-20T14:20:47;5.70;99.90
35258;DHT22;21385;50.878;8.050;2022-11-20T14:23:23;5.70;99.90
35258;DHT22;21385;50.878;8.050;2022-11-20T14:25:49;5.60;99.90
35258;DHT22;21385;50.878;8.050;2022-11-20T14:28:25;5.70;99.90
35258;DHT22;21385;50.878;8.050;2022-11-20T14:30:52;5.70;99.90
35258;DHT22;21385;50.878;8.050;2022-11-20T14:33:18;5.70;99.90
35258;DHT22;21385;50.878;8.050;2022-11-20T14:35:53;5.60;99.90
35258;DHT22;21385;50.878;8.050;2022-11-20T14:38:22;5.60;99.90
35258;DHT22;21385;50.878;8.050;2022-11-20T14:40:49;5.60;99.90
35258;DHT22;21385;50.878;8.050;2022-11-20T14:43:26;5.60;99.90
35258;DHT22;21385;50.878;8.050;2022-11-20T14:46:12;5.70;99.90
35258;DHT22;21385;50.878;8.050;2022-11-20T14:48:49;5.70;99.90
35258;DHT22;21385;50.878;8.050;2022-11-20T14:51:34;5.70;99.90
35258;DHT22;21385;50.878;8.050;2022-11-20T14:54:31;5.70;99.90
35258;DHT22;21385;50.878;8.050;2022-11-20T14:57:03;5.70;99.90
35258;DHT22;21385;50.878;8.050;2022-11-20T14:59:31;5.70;99.90
35258;DHT22;21385;50.878;8.050;2022-11-20T15:01:59;5.70;99.90
35258;DHT22;21385;50.878;8.050;2022-11-20T15:04:25;5.70;99.90
35258;DHT22;21385;50.878;8.050;2022-11-20T15:06:54;5.70;99.90
35258;DHT22;21385;50.878;8.050;2022-11-20T15:09:20;5.70;99.90
35258;DHT22;21385;50.878;8.050;2022-11-20T15:11:59;5.60;99.90
35258;DHT22;21385;50.878;8.050;2022-11-20T15:14:27;5.60;99.90
35258;DHT22;21385;50.878;8.050;2022-11-20T15:16:54;5.60;99.90
35258;DHT22;21385;50.878;8.050;2022-11-20T15:19:22;5.60;99.90
35258;DHT22;21385;50.878;8.050;2022-11-20T15:21:48;5.70;99.90
35258;DHT22;21385;50.878;8.050;2022-11-20T15:24:13;5.70;99.90
35258;DHT22;21385;50.878;8.050;2022-11-20T15:26:39;5.70;99.90
35258;DHT22;21385;50.878;8.050;2022-11-20T15:29:14;5.70;99.90
35258;DHT22;21385;50.878;8.050;2022-11-20T15:31:39;5.70;99.90
35258;DHT22;21385;50.878;8.050;2022-11-20T15:34:11;5.70;99.90
35258;DHT22;21385;50.878;8.050;2022-11-20T15:36:38;5.80;99.90
35258;DHT22;21385;50.878;8.050;2022-11-20T15:39:04;5.80;99.90
35258;DHT22;21385;50.878;8.050;2022-11-20T15:41:29;5.80;99.90
35258;DHT22;21385;50.878;8.050;2022-11-20T15:43:55;5.80;99.90
35258;DHT22;21385;50.878;8.050;2022-11-20T15:46:26;5.80;99.90
35258;DHT22;21385;50.878;8.050;2022-11-20T15:48:57;5.80;99.90
35258;DHT22;21385;50.878;8.050;2022-11-20T15:51:30;5.70;99.90
35258;DHT22;21385;50.878;8.050;2022-11-20T15:53:56;5.80;99.90
35258;DHT22;21385;50.878;8.050;2022-11-20T15:56:22;5.70;99.90
35258;DHT22;21385;50.878;8.050;2022-11-20T15:58:48;5.80;99.90
35258;DHT22;21385;50.878;8.050;2022-11-20T16:01:17;5.70;99.90
35258;DHT22;21385;50.878;8.050;2022-11-20T16:03:43;5.70;99.90
35258;DHT22;21385;50.878;8.050;2022-11-20T16:06:08;5.70;99.90
35258;DHT22;21385;50.878;8.050;2022-11-20T16:08:34;5.80;99.90
35258;DHT22;21385;50.878;8.050;2022-11-20T16:11:00;5.80;99.90
35258;DHT22;21385;50.878;8.050;2022-11-20T16:13:26;5.80;99.90
35258;DHT22;21385;50.878;8.050;2022-11-20T16:16:22;5.80;99.90
35258;DHT22;21385;50.878;8.050;2022-11-20T16:18:49;5.80;99.90
35258;DHT22;21385;50.878;8.050;2022-11-20T16:21:15;5.90;99.90
35258;DHT22;21385;50.878;8.050;2022-11-20T16:23:41;5.90;99.90
35258;DHT22;21385;50.878;8.050;2022-11-20T16:26:15;5.80;99.90
35258;DHT22;21385;50.878;8.050;2022-11-20T16:28:42;5.80;99.90
35258;DHT22;21385;50.878;8.050;2022-11-20T16:31:09;5.80;99.90
35258;DHT22;21385;50.878;8.050;2022-11-20T16:33:35;5.80;99.90
35258;DHT22;21385;50.878;8.050;2022-11-20T16:36:13;5.80;99.90
35258;DHT22;21385;50.878;8.050;2022-11-20T16:38:39;5.80;99.90
35258;DHT22;21385;50.878;8.050;2022-11-20T16:41:05;5.80;99.90
35258;DHT22;21385;50.878;8.050;2022-11-20T16:43:31;5.90;99.90
35258;DHT22;21385;50.878;8.050;2022-11-20T16:45:56;5.90;99.90
35258;DHT22;21385;50.878;8.050;2022-11-20T16:48:22;5.80;99.90
35258;DHT22;21385;50.878;8.050;2022-11-20T16:50:50;5.80;99.90
35258;DHT22;21385;50.878;8.050;2022-11-20T16:53:17;5.80;99.90
35258;DHT22;21385;50.878;8.050;2022-11-20T16:55:43;5.70;99.90
35258;DHT22;21385;50.878;8.050;2022-11-20T16:58:09;5.70;99.90
35258;DHT22;21385;50.878;8.050;2022-11-20T17:00:41;5.70;99.90
35258;DHT22;21385;50.878;8.050;2022-11-20T17:03:07;5.80;99.90
35258;DHT22;21385;50.878;8.050;2022-11-20T17:05:33;5.90;99.90
35258;DHT22;21385;50.878;8.050;2022-11-20T17:08:00;6.20;99.90
35258;DHT22;21385;50.878;8.050;2022-11-20T17:10:26;6.10;99.90
35258;DHT22;21385;50.878;8.050;2022-11-20T17:12:51;6.10;99.90
35258;DHT22;21385;50.878;8.050;2022-11-20T17:15:17;6.10;99.90
35258;DHT22;21385;50.878;8.050;2022-11-20T17:17:43;6.00;99.90
35258;DHT22;21385;50.878;8.050;2022-11-20T17:20:09;6.00;99.90
35258;DHT22;21385;50.878;8.050;2022-11-20T17:22:36;6.00;99.90
35258;DHT22;21385;50.878;8.050;2022-11-20T17:25:02;6.00;99.90
35258;DHT22;21385;50.878;8.050;2022-11-20T17:27:28;6.10;99.90
35258;DHT22;21385;50.878;8.050;2022-11-20T17:29:54;6.10;99.90
35258;DHT22;21385;50.878;8.050;2022-11-20T17:32:21;6.20;99.90
35258;DHT22;21385;50.878;8.050;2022-11-20T17:34:47;6.20;99.90
35258;DHT22;21385;50.878;8.050;2022-11-20T17:37:12;6.20;99.90
35258;DHT22;21385;50.878;8.050;2022-11-20T17:39:38;6.20;99.90
35258;DHT22;21385;50.878;8.050;2022-11-20T17:42:04;6.20;99.90
35258;DHT22;21385;50.878;8.050;2022-11-20T17:44:48;6.20;99.90
35258;DHT22;21385;50.878;8.050;2022-11-20T17:47:14;6.20;99.90
35258;DHT22;21385;50.878;8.050;2022-11-20T17:49:40;6.30;99.90
35258;DHT22;21385;50.878;8.050;2022-11-20T17:52:06;6.30;99.90
35258;DHT22;21385;50.878;8.050;2022-11-20T17:54:31;6.40;99.90